Time;durP1;ratioP1;P1;durP2;ratioP2;P2;SDS_P1;SDS_P2;PMS_P1;PMS_P2;Temp;Humidity;BMP_temperature;BMP_pressure;BME280_temperature;BME280_humidity;BME280_pressure;Samples;Min_cycle;Max_cycle;Signal;HPM_P1;HPM_P2
2023/02/20 09:42:29;;;;;;;11.20;7.10;;;;;;;2.22;80.13;99607.23;99967;1297;636687;-67
2023/02/20 09:47:42;;;;;;;15.90;7.70;;;;;;;2.18;80.87;99596.30;99664;1293;638411;-66
2023/02/20 09:50:40;;;;;;;18.40;8.50;;;;;;;2.11;81.02;99592.23;103115;1262;94402;-66
2023/02/20 09:53:30;;;;;;;;;;;;;;;2.07;81.36;99580.77;102685;1261;109061;-67
2023/02/20 09:56:16;;;;;;;14.20;8.20;;;;;;;2.03;81.49;99563.67;102660;1261;94421;-66
2023/02/20 09:59:08;;;;;;;14.80;7.90;;;;;;;1.99;82.04;99556.52;102635;1260;107854;-66
2023/02/20 10:02:01;;;;;;;15.40;8.20;;;;;;;1.95;82.11;99540.59;98587;1260;5394229;-66
2023/02/20 10:04:50;;;;;;;14.10;7.90;;;;;;;1.93;82.46;99537.69;103597;1260;108534;-67
2023/02/20 10:07:49;;;;;;;13.90;8.10;;;;;;;1.91;82.73;99536.33;104074;1258;137283;-67
2023/02/20 10:10:37;;;;;;;14.20;8.60;;;;;;;1.91;83.06;99520.92;103265;1259;94430;-67
2023/02/20 10:13:43;;;;;;;17.80;8.80;;;;;;;1.90;83.30;99516.11;102677;1259;137303;-66
2023/02/20 10:16:32;;;;;;;14.60;8.70;;;;;;;1.91;83.60;99508.40;103151;1259;95109;-66
2023/02/20 10:19:30;;;;;;;15.70;8.90;;;;;;;1.92;83.68;99504.61;102768;1258;137461;-66
2023/02/20 10:22:24;;;;;;;14.50;8.70;;;;;;;1.93;83.99;99493.29;102176;1260;1002651;-66
2023/02/20 10:25:18;;;;;;;18.70;9.20;;;;;;;1.96;84.15;99493.42;102184;1259;1003051;-67
2023/02/20 10:27:54;;;;;;;12.50;9.10;;;;;;;1.99;84.20;99485.70;103875;1260;108826;-67
2023/02/20 10:30:46;;;;;;;10.50;7.50;;;;;;;2.01;84.44;99486.36;102001;1260;1003048;-67
2023/02/20 10:33:40;;;;;;;14.10;9.10;;;;;;;2.03;84.81;99475.20;103169;1257;108976;-66
2023/02/20 10:36:23;;;;;;;15.10;9.20;;;;;;;2.05;84.78;99468.31;103123;1257;137868;-66
2023/02/20 10:38:58;;;;;;;13.60;8.20;;;;;;;2.09;84.73;99460.73;102962;1256;95193;-67
2023/02/20 10:41:54;;;;;;;12.50;7.40;;;;;;;2.12;85.04;99457.09;103712;1258;109170;-66
2023/02/20 10:44:28;;;;;;;11.70;8.30;;;;;;;2.13;85.20;99444.05;102922;1257;95930;-66
2023/02/20 10:47:27;;;;;;;11.20;6.70;;;;;;;2.15;85.32;99432.02;103451;1256;109877;-66
2023/02/20 10:50:02;;;;;;;12.30;7.40;;;;;;;2.15;85.10;99448.13;103603;1257;137553;-66
2023/02/20 10:52:35;;;;;;;11.20;7.50;;;;;;;2.16;85.14;99438.38;102990;1259;95479;-66
2023/02/20 10:55:17;;;;;;;11.30;7.20;;;;;;;2.15;85.38;99425.33;103007;1256;137375;-66
2023/02/20 10:58:10;;;;;;;10.40;7.70;;;;;;;2.16;85.58;99419.69;102945;1257;95097;-67
2023/02/20 11:00:51;;;;;;;11.20;7.90;;;;;;;2.16;85.62;99411.27;102766;1258;137407;-67
2023/02/20 11:03:34;;;;;;;12.60;7.30;;;;;;;2.17;85.70;99404.59;102856;1257;107059;-67
2023/02/20 11:06:17;;;;;;;10.10;7.30;;;;;;;2.17;85.32;99396.19;102763;1260;138034;-67
2023/02/20 11:08:44;;;;;;;10.70;7.70;;;;;;;2.15;85.45;99389.84;102839;1257;107811;-67
2023/02/20 11:11:24;;;;;;;10.60;7.60;;;;;;;2.14;85.44;99379.55;102942;1260;95096;-68
2023/02/20 11:13:55;;;;;;;10.20;7.60;;;;;;;2.12;85.27;99380.61;102753;1257;137784;-67
2023/02/20 11:16:47;;;;;;;10.30;7.40;;;;;;;2.11;85.41;99371.52;102082;1256;1003687;-68
2023/02/20 11:19:21;;;;;;;11.80;7.60;;;;;;;2.10;85.44;99361.26;103263;1254;137648;-67
2023/02/20 11:21:50;;;;;;;12.60;8.00;;;;;;;2.08;85.38;99335.73;103574;1254;108034;-67
2023/02/20 11:24:39;;;;;;;11.70;8.10;;;;;;;2.06;85.33;99269.59;103143;1257;137660;-65
2023/02/20 11:27:14;;;;;;;13.30;8.00;;;;;;;2.01;85.71;99212.73;103209;1256;108404;-65
2023/02/20 11:29:49;;;;;;;11.90;8.10;;;;;;;1.96;86.00;99264.90;102543;1256;1003077;-67
2023/02/20 11:32:35;;;;;;;12.90;8.80;;;;;;;1.95;86.42;99244.69;103303;1256;96753;-67
2023/02/20 11:35:32;;;;;;;12.00;8.80;;;;;;;1.97;86.91;99233.17;102950;1258;108559;-65
2023/02/20 11:38:26;;;;;;;13.60;9.80;;;;;;;1.97;87.14;99204.55;103076;1254;137489;-65
2023/02/20 11:41:13;;;;;;;13.70;9.70;;;;;;;2.00;87.53;99220.81;103151;1256;109089;-66
2023/02/20 11:43:43;;;;;;;19.40;11.20;;;;;;;2.02;87.47;99214.09;102407;1254;1002734;-67
2023/02/20 11:46:26;;;;;;;16.20;11.20;;;;;;;2.07;87.66;99199.95;103077;1256;95116;-68
2023/02/20 11:49:05;;;;;;;15.70;11.50;;;;;;;2.10;88.02;99178.13;103074;1254;137461;-67
2023/02/20 11:51:45;;;;;;;16.90;10.80;;;;;;;2.15;87.88;99173.27;103148;1256;95075;-67
2023/02/20 11:54:32;;;;;;;16.10;11.40;;;;;;;2.20;88.19;99142.14;102187;1255;1003097;-67
2023/02/20 11:57:05;;;;;;;17.20;12.10;;;;;;;2.25;88.42;99136.05;103026;1259;106936;-67
2023/02/20 11:59:39;;;;;;;17.20;11.30;;;;;;;2.29;88.44;99126.53;103131;1254;95632;-67
2023/02/20 12:02:27;;;;;;;19.20;12.20;;;;;;;2.34;88.33;99132.30;102946;1255;137423;-68
2023/02/20 12:05:14;;;;;;;16.90;11.40;;;;;;;2.39;88.56;99104.09;103114;1257;95100;-68
2023/02/20 12:07:54;;;;;;;18.60;11.40;;;;;;;2.45;88.60;99103.12;102979;1257;137448;-68
2023/02/20 12:10:42;;;;;;;18.50;11.30;;;;;;;2.52;88.90;99081.55;102890;1254;107565;-68
2023/02/20 12:13:14;;;;;;;18.40;12.00;;;;;;;2.59;88.91;99058.09;103245;1256;137708;-68
2023/02/20 12:16:09;;;;;;;16.90;11.10;;;;;;;2.68;88.85;99034.23;102309;1257;1003193;-65
2023/02/20 12:18:54;;;;;;;17.40;11.10;;;;;;;2.76;88.90;99021.55;102956;1258;137976;-66
2023/02/20 12:21:42;;;;;;;18.40;11.70;;;;;;;2.85;88.88;99013.63;102332;1255;1003820;-67
2023/02/20 12:24:35;;;;;;;17.80;11.20;;;;;;;2.93;89.02;99018.27;104283;1254;137958;-67
2023/02/20 12:27:10;;;;;;;15.50;11.10;;;;;;;3.00;88.96;99034.77;103413;1254;95148;-67
2023/02/20 12:30:11;;;;;;;18.70;11.30;;;;;;;3.08;88.81;99030.52;103084;1256;110186;-67
2023/02/20 12:33:16;;;;;;;16.40;11.20;;;;;;;3.16;88.75;99039.59;102983;1257;95123;-67
2023/02/20 12:35:55;;;;;;;21.60;12.10;;;;;;;3.23;88.73;99014.71;103139;1257;108186;-67
2023/02/20 12:38:48;;;;;;;17.20;11.30;;;;;;;3.31;88.80;99015.55;103661;1254;106782;-67
2023/02/20 12:41:29;;;;;;;17.50;11.90;;;;;;;3.39;88.89;99021.55;103202;1257;95632;-66
2023/02/20 12:44:34;;;;;;;18.30;11.90;;;;;;;3.46;88.49;99034.80;103057;1257;138062;-67
2023/02/20 12:47:27;;;;;;;16.50;11.40;;;;;;;3.54;88.55;99024.46;103745;1257;94680;-66
2023/02/20 12:50:26;;;;;;;19.40;12.50;;;;;;;3.60;88.15;99030.52;103045;1254;137793;-66
2023/02/20 12:53:06;;;;;;;14.20;10.50;;;;;;;3.67;88.30;99034.84;102422;1256;1002507;-67
2023/02/20 12:56:19;;;;;;;19.80;12.30;;;;;;;3.74;88.42;99026.23;104007;1257;138161;-69
2023/02/20 12:59:18;;;;;;;19.40;11.40;;;;;;;3.81;88.05;99036.39;103827;1257;107960;-66
2023/02/20 13:02:19;;;;;;;17.90;11.10;;;;;;;3.86;88.29;99025.42;102984;1254;137986;-68
2023/02/20 13:05:01;;;;;;;18.30;11.50;;;;;;;3.90;88.25;99016.19;103110;1254;109162;-67
2023/02/20 13:07:54;;;;;;;16.90;11.30;;;;;;;3.95;87.91;99023.15;102996;1257;137835;-66
2023/02/20 13:10:33;;;;;;;16.40;10.80;;;;;;;3.98;87.99;99028.77;103302;1256;95223;-67
2023/02/20 13:13:22;;;;;;;18.20;10.80;;;;;;;4.01;88.06;99011.65;103085;1256;137771;-66
2023/02/20 13:16:14;;;;;;;19.00;11.60;;;;;;;4.06;88.21;99009.27;103226;1254;95126;-67
2023/02/20 13:18:48;;;;;;;15.10;9.80;;;;;;;4.11;88.24;99000.02;103423;1253;138111;-67
2023/02/20 13:21:20;;;;;;;13.80;9.60;;;;;;;4.20;88.21;98996.70;103300;1254;108215;-66
2023/02/20 13:23:52;;;;;;;15.30;9.40;;;;;;;4.29;88.18;98993.89;103579;1254;95498;-68
2023/02/20 13:26:48;;;;;;;15.00;10.00;;;;;;;4.35;87.98;98992.00;103229;1257;137496;-66
2023/02/20 13:29:23;;;;;;;15.80;10.20;;;;;;;4.44;87.81;98980.58;103292;1256;95575;-67
2023/02/20 13:31:52;;;;;;;16.30;10.60;;;;;;;4.50;87.88;98988.14;103204;1255;137673;-66
2023/02/20 13:34:37;;;;;;;16.20;10.20;;;;;;;4.57;87.79;98979.36;103296;1255;108520;-66
2023/02/20 13:37:26;;;;;;;14.80;9.90;;;;;;;4.63;87.52;98964.70;103187;1256;138086;-66
2023/02/20 13:39:53;;;;;;;16.40;9.90;;;;;;;4.68;87.44;98955.61;103345;1253;107602;-65
2023/02/20 13:42:35;;;;;;;15.10;10.00;;;;;;;4.74;87.33;98940.13;103362;1256;138343;-66
2023/02/20 13:45:23;;;;;;;14.60;9.70;;;;;;;4.79;87.05;98950.80;103396;1254;107889;-66
2023/02/20 13:47:50;;;;;;;16.80;9.00;;;;;;;4.85;87.05;98925.84;103159;1254;107735;-66
2023/02/20 13:50:33;;;;;;;14.00;9.10;;;;;;;4.90;86.67;98922.25;102983;1256;137493;-65
2023/02/20 13:53:11;;;;;;;12.80;9.00;;;;;;;4.95;86.79;98919.66;103170;1254;108256;-65
2023/02/20 13:55:42;;;;;;;16.40;9.80;;;;;;;5.01;86.51;98914.48;102306;1258;1002850;-65
2023/02/20 13:58:15;;;;;;;15.40;8.90;;;;;;;5.07;86.44;98925.52;103361;1256;109212;-67
2023/02/20 14:00:51;;;;;;;15.30;9.50;;;;;;;5.12;86.20;98926.92;102262;1258;1002530;-65
2023/02/20 14:03:23;;;;;;;12.20;8.60;;;;;;;5.15;86.03;98919.73;103742;1254;94509;-67
2023/02/20 14:06:06;;;;;;;13.50;8.90;;;;;;;5.19;85.91;98913.94;102313;1254;1003096;-69
2023/02/20 14:08:33;;;;;;;13.90;9.00;;;;;;;5.23;85.82;98918.83;103285;1256;95106;-67
2023/02/20 14:11:30;;;;;;;17.10;9.20;;;;;;;5.26;85.75;98904.93;103118;1256;109390;-67
2023/02/20 14:14:28;;;;;;;13.10;8.60;;;;;;;5.30;85.74;98902.39;103565;1254;137813;-68
2023/02/20 14:17:07;;;;;;;15.20;8.90;;;;;;;5.32;85.60;98901.26;103084;1257;95808;-66
2023/02/20 14:19:41;;;;;;;13.40;8.40;;;;;;;5.36;85.53;98894.61;103043;1254;138044;-67
2023/02/20 14:22:24;;;;;;;14.20;9.10;;;;;;;5.39;85.30;98886.77;103076;1255;96770;-68
2023/02/20 14:25:17;;;;;;;14.60;8.50;;;;;;;5.41;85.12;98884.78;102914;1257;137679;-67
2023/02/20 14:28:15;;;;;;;16.40;9.70;;;;;;;5.44;85.10;98879.51;102558;1260;107670;-66
2023/02/20 14:30:43;;;;;;;14.20;8.00;;;;;;;5.46;85.20;98880.13;102864;1260;138124;-69
2023/02/20 14:33:29;;;;;;;17.30;8.70;;;;;;;5.51;85.09;98875.52;102603;1259;106626;-66
2023/02/20 14:36:26;;;;;;;14.50;8.60;;;;;;;5.54;84.94;98870.20;102685;1260;96679;-66
2023/02/20 14:39:10;;;;;;;12.20;8.00;;;;;;;5.59;84.85;98868.34;102520;1261;110670;-66
2023/02/20 14:41:37;;;;;;;12.40;8.10;;;;;;;5.63;84.83;98881.66;102590;1260;108744;-67
2023/02/20 14:44:27;;;;;;;13.50;8.30;;;;;;;5.67;84.61;98849.45;102507;1260;137970;-67
2023/02/20 14:46:59;;;;;;;14.20;8.40;;;;;;;5.71;84.59;98829.61;102500;1261;108677;-67
2023/02/20 14:49:36;;;;;;;14.20;7.90;;;;;;;5.75;84.34;98830.52;102783;1260;138043;-67
2023/02/20 14:52:26;;;;;;;13.30;8.00;;;;;;;5.80;84.23;98844.84;102614;1259;110116;-66
2023/02/20 14:55:05;;;;;;;13.60;7.60;;;;;;;5.86;84.04;98834.62;102088;1264;1003395;-67
2023/02/20 14:57:51;;;;;;;10.80;7.60;;;;;;;5.92;83.94;98838.24;102684;1261;96461;-66
2023/02/20 15:00:33;;;;;;;12.70;8.00;;;;;;;5.96;83.84;98826.36;101773;1261;1003537;-67
2023/02/20 15:03:02;;;;;;;12.30;7.00;;;;;;;6.01;83.65;98819.95;103139;1260;1002427;-67
2023/02/20 15:05:33;;;;;;;11.30;7.20;;;;;;;6.05;83.67;98828.76;102846;1254;110792;-67
2023/02/20 15:08:15;;;;;;;11.30;6.90;;;;;;;6.10;83.50;98828.45;102777;1256;137882;-68
2023/02/20 15:10:45;;;;;;;11.70;7.60;;;;;;;6.12;83.37;98822.66;103524;1254;95392;-68
2023/02/20 15:13:15;;;;;;;12.60;7.70;;;;;;;6.16;83.20;98807.52;103255;1255;140443;-68
2023/02/20 15:15:50;;;;;;;11.60;7.50;;;;;;;6.18;83.01;98800.01;103081;1254;96443;-68
2023/02/20 15:18:41;;;;;;;10.50;7.00;;;;;;;6.21;82.95;98807.33;103100;1256;137837;-69
2023/02/20 15:21:33;;;;;;;11.50;7.40;;;;;;;6.23;82.70;98801.55;102955;1257;108208;-69
2023/02/20 15:24:39;;;;;;;11.40;7.00;;;;;;;6.25;82.86;98816.98;104434;1256;94624;-68
2023/02/20 15:27:15;;;;;;;12.10;7.40;;;;;;;6.27;82.61;98808.27;103551;1253;108655;-67
2023/02/20 15:30:16;;;;;;;11.30;7.30;;;;;;;6.29;82.74;98800.80;102596;1257;1003129;-66
2023/02/20 15:32:52;;;;;;;10.30;7.10;;;;;;;6.31;82.59;98787.10;103567;1256;109734;-66
2023/02/20 15:35:24;;;;;;;10.40;7.00;;;;;;;6.33;82.52;98788.03;103241;1254;107252;-66
2023/02/20 15:38:14;;;;;;;10.40;6.80;;;;;;;6.34;82.32;98784.23;103013;1257;138121;-66
2023/02/20 15:40:42;;;;;;;11.90;6.70;;;;;;;6.35;82.39;98777.95;103716;1254;107733;-66
2023/02/20 15:43:30;;;;;;;10.60;6.40;;;;;;;6.37;82.21;98786.01;102975;1253;137858;-66
2023/02/20 15:46:15;;;;;;;10.30;6.80;;;;;;;6.38;82.21;98793.74;103903;1253;110798;-66
2023/02/20 15:49:04;;;;;;;11.80;6.30;;;;;;;6.40;82.01;98792.80;102219;1257;1002573;-66
2023/02/20 15:51:38;;;;;;;9.60;6.40;;;;;;;6.42;81.87;98785.30;103519;1253;96425;-66
2023/02/20 15:54:07;;;;;;;10.30;6.90;;;;;;;6.43;81.70;98770.91;103101;1257;107704;-66
2023/02/20 15:56:35;;;;;;;10.50;6.50;;;;;;;6.45;81.65;98778.42;103000;1254;137795;-66
2023/02/20 15:59:16;;;;;;;8.40;5.80;;;;;;;6.47;81.72;98771.83;103095;1256;111335;-67
2023/02/20 16:02:06;;;;;;;11.40;6.70;;;;;;;6.48;81.50;98770.55;102870;1257;137788;-66
2023/02/20 16:04:47;;;;;;;10.40;6.10;;;;;;;6.50;81.36;98765.30;103129;1253;96451;-67
2023/02/20 16:07:35;;;;;;;8.70;6.10;;;;;;;6.52;81.41;98762.27;102899;1254;137653;-66
2023/02/20 16:10:15;;;;;;;9.20;6.20;;;;;;;6.54;81.30;98746.14;103331;1254;96537;-66
2023/02/20 16:13:04;;;;;;;9.60;6.00;;;;;;;6.56;81.16;98740.70;104209;1253;137548;-67
2023/02/20 16:15:32;;;;;;;8.30;5.60;;;;;;;6.57;81.05;98746.33;103233;1258;108203;-67
2023/02/20 16:18:12;;;;;;;9.30;6.00;;;;;;;6.59;80.92;98747.98;103448;1253;96448;-71
2023/02/20 16:21:00;;;;;;;8.00;5.90;;;;;;;6.62;80.95;98754.09;103211;1255;107793;-68
2023/02/20 16:23:33;;;;;;;8.80;5.60;;;;;;;6.64;80.95;98755.91;103243;1258;96326;-72
2023/02/20 16:26:10;;;;;;;9.90;6.30;;;;;;;6.67;80.80;98750.11;103199;1258;137656;-67
2023/02/20 16:28:38;;;;;;;7.80;5.40;;;;;;;6.69;80.68;98746.23;103037;1255;106564;-67
2023/02/20 16:31:17;;;;;;;11.40;6.10;;;;;;;6.71;80.66;98747.35;103087;1258;137996;-70
2023/02/20 16:33:58;;;;;;;8.20;5.80;;;;;;;6.73;80.51;98735.38;103058;1257;108554;-69
2023/02/20 16:36:46;;;;;;;9.40;6.10;;;;;;;6.75;80.52;98732.18;102968;1258;138483;-69
2023/02/20 16:39:13;;;;;;;11.70;7.20;;;;;;;6.76;80.46;98733.35;103097;1256;112413;-69
2023/02/20 16:41:52;;;;;;;8.30;5.90;;;;;;;6.78;80.46;98738.95;103126;1256;107792;-68
2023/02/20 16:44:36;;;;;;;8.80;6.50;;;;;;;6.79;80.32;98738.38;102948;1258;137663;-68
2023/02/20 16:47:04;;;;;;;11.20;6.70;;;;;;;6.79;80.50;98739.75;103167;1258;108243;-68
2023/02/20 16:49:45;;;;;;;9.30;6.50;;;;;;;6.80;80.80;98741.78;103133;1254;137970;-69
2023/02/20 16:52:35;;;;;;;10.10;6.80;;;;;;;6.80;81.05;98722.45;103901;1256;109913;-68
2023/02/20 16:55:04;;;;;;;11.00;6.60;;;;;;;6.78;81.38;98725.29;102915;1256;138979;-68
2023/02/20 16:57:52;;;;;;;11.50;7.00;;;;;;;6.76;81.70;98729.04;103106;1255;96893;-68
2023/02/20 17:00:43;;;;;;;16.30;7.60;;;;;;;6.73;82.00;98731.89;103095;1254;137882;-69
2023/02/20 17:03:26;;;;;;;9.60;6.60;;;;;;;6.70;82.32;98731.52;103089;1260;96198;-68
2023/02/20 17:05:58;;;;;;;13.00;7.30;;;;;;;6.67;82.63;98738.53;104414;1256;109929;-69
2023/02/20 17:08:26;;;;;;;10.00;6.90;;;;;;;6.64;82.84;98728.97;103211;1255;138006;-68
2023/02/20 17:11:03;;;;;;;9.00;6.60;;;;;;;6.62;83.27;98733.00;103517;1254;96969;-68
2023/02/20 17:13:40;;;;;;;11.20;7.30;;;;;;;6.60;83.58;98710.48;102993;1254;138385;-70
2023/02/20 17:16:27;;;;;;;9.70;7.30;;;;;;;6.57;83.71;98716.82;103414;1254;96349;-68
2023/02/20 17:18:58;;;;;;;10.80;6.90;;;;;;;6.54;83.97;98728.00;102910;1254;137652;-68
2023/02/20 17:21:31;;;;;;;10.30;7.30;;;;;;;6.52;84.34;98719.45;103015;1254;1003147;-70
2023/02/20 17:23:58;;;;;;;13.60;8.00;;;;;;;6.49;84.52;98719.95;103009;1254;97055;-68
2023/02/20 17:26:46;;;;;;;11.90;7.50;;;;;;;6.46;84.72;98711.39;103183;1256;108176;-68
2023/02/20 17:29:14;;;;;;;11.40;7.50;;;;;;;6.44;84.97;98693.70;102849;1259;96455;-68
2023/02/20 17:32:02;;;;;;;11.60;7.40;;;;;;;6.43;85.23;98704.60;102302;1256;1003504;-69
2023/02/20 17:34:40;;;;;;;11.60;7.70;;;;;;;6.43;85.33;98711.68;102801;1260;1016924;-68
2023/02/20 17:37:08;;;;;;;11.50;7.80;;;;;;;6.42;85.31;98703.41;102952;1254;138045;-67
2023/02/20 17:39:44;;;;;;;12.20;7.60;;;;;;;6.43;85.35;98706.50;103136;1258;107544;-68
2023/02/20 17:42:26;;;;;;;10.00;7.10;;;;;;;6.43;85.43;98701.14;102988;1256;138022;-68
2023/02/20 17:45:04;;;;;;;12.80;8.00;;;;;;;6.44;85.65;98695.25;102991;1256;110769;-67
2023/02/20 17:47:51;;;;;;;10.90;7.80;;;;;;;6.43;85.74;98692.35;104190;1256;106891;-67
2023/02/20 17:50:19;;;;;;;10.60;7.60;;;;;;;6.45;85.87;98683.84;102850;1258;137947;-69
2023/02/20 17:52:48;;;;;;;11.80;7.30;;;;;;;6.45;86.13;98678.96;103081;1256;108216;-67
2023/02/20 17:55:27;;;;;;;12.30;7.90;;;;;;;6.46;86.04;98679.99;102888;1258;137841;-68
2023/02/20 17:58:15;;;;;;;14.50;7.90;;;;;;;6.47;86.56;98668.57;103430;1256;110094;-68
2023/02/20 18:00:52;;;;;;;11.00;7.70;;;;;;;6.46;86.69;98684.27;104174;1254;140988;-68
2023/02/20 18:03:19;;;;;;;11.50;7.70;;;;;;;6.46;86.61;98681.19;103879;1258;96868;-67
2023/02/20 18:06:09;;;;;;;11.90;7.80;;;;;;;6.47;87.21;98662.52;103009;1254;107704;-68
2023/02/20 18:08:44;;;;;;;11.80;8.50;;;;;;;6.46;87.46;98674.46;103167;1256;139892;-67
2023/02/20 18:11:19;;;;;;;;;;;;;;;6.45;87.80;98678.64;102975;1258;110945;-68
2023/02/20 18:13:50;;;;;;;10.10;8.10;;;;;;;6.43;88.09;98679.77;102892;1255;124297;-67
2023/02/20 18:16:17;;;;;;;14.60;8.60;;;;;;;6.41;88.30;98676.73;104385;1255;95679;-68
2023/02/20 18:18:45;;;;;;;11.40;8.70;;;;;;;6.39;88.90;98678.89;103088;1254;137929;-68
2023/02/20 18:21:24;;;;;;;12.50;9.90;;;;;;;6.36;88.77;98683.66;102982;1255;96920;-68
2023/02/20 18:24:13;;;;;;;13.50;9.30;;;;;;;6.35;88.84;98689.59;103095;1258;111285;-68
2023/02/20 18:26:43;;;;;;;12.20;9.30;;;;;;;6.34;88.97;98679.79;103345;1255;138618;-68
2023/02/20 18:29:13;;;;;;;11.60;8.70;;;;;;;6.33;89.29;98675.52;103004;1255;97004;-68
2023/02/20 18:31:41;;;;;;;12.00;9.10;;;;;;;6.33;89.42;98677.92;102875;1258;137776;-67
2023/02/20 18:34:17;;;;;;;13.90;9.90;;;;;;;6.33;89.82;98663.59;103051;1258;96371;-68
2023/02/20 18:36:45;;;;;;;13.60;9.70;;;;;;;6.33;89.95;98666.89;103471;1255;138158;-65
2023/02/20 18:39:32;;;;;;;13.90;9.30;;;;;;;6.32;90.09;98666.39;103025;1256;108558;-68
2023/02/20 18:42:00;;;;;;;14.50;10.30;;;;;;;6.32;90.41;98654.13;103039;1256;96469;-67
2023/02/20 18:44:29;;;;;;;14.70;10.00;;;;;;;6.33;90.70;98635.30;102962;1258;137973;-67
2023/02/20 18:46:59;;;;;;;12.60;10.00;;;;;;;6.33;90.99;98651.16;103065;1258;96470;-67
2023/02/20 18:49:26;;;;;;;15.20;10.50;;;;;;;6.33;90.99;98650.48;102939;1258;137933;-68
2023/02/20 18:52:15;;;;;;;14.20;9.60;;;;;;;6.34;90.83;98651.98;102795;1256;108508;-67
2023/02/20 18:54:42;;;;;;;13.10;9.80;;;;;;;6.34;91.11;98639.05;103044;1255;138047;-67
2023/02/20 18:57:22;;;;;;;11.60;9.50;;;;;;;6.35;91.27;98656.78;102942;1255;108289;-67
2023/02/20 18:59:50;;;;;;;14.60;9.40;;;;;;;6.35;91.11;98661.94;103007;1258;96336;-67
2023/02/20 19:02:18;;;;;;;13.50;10.20;;;;;;;6.37;91.21;98659.13;103326;1256;137654;-67
2023/02/20 19:05:07;;;;;;;14.70;10.10;;;;;;;6.38;91.45;98670.46;103063;1256;110729;-67
2023/02/20 19:07:35;;;;;;;14.50;10.30;;;;;;;6.40;91.25;98659.68;103840;1258;137959;-68
2023/02/20 19:10:02;;;;;;;13.60;10.10;;;;;;;6.41;91.24;98668.44;103148;1255;108805;-68
2023/02/20 19:12:41;;;;;;;14.20;10.30;;;;;;;6.43;91.29;98665.77;103633;1257;138183;-68
2023/02/20 19:15:19;;;;;;;14.90;10.30;;;;;;;6.45;91.71;98651.34;102887;1258;196416;-68
2023/02/20 19:17:49;;;;;;;13.20;9.80;;;;;;;6.46;91.61;98662.02;103049;1256;107060;-68
2023/02/20 19:20:21;;;;;;;13.00;9.90;;;;;;;6.47;91.48;98653.34;102897;1261;137824;-68
2023/02/20 19:23:03;;;;;;;15.10;10.40;;;;;;;6.49;91.61;98672.80;102982;1256;107596;-68
2023/02/20 19:25:42;;;;;;;16.20;10.20;;;;;;;6.50;91.52;98661.52;102895;1261;137995;-65
2023/02/20 19:28:10;;;;;;;13.80;10.30;;;;;;;6.52;91.78;98668.85;103237;1256;110237;-66
2023/02/20 19:30:38;;;;;;;14.20;10.00;;;;;;;6.52;91.70;98675.58;102895;1260;138211;-66
2023/02/20 19:33:17;;;;;;;14.80;10.90;;;;;;;6.53;91.71;98670.73;103131;1255;96528;-66
2023/02/20 19:36:07;;;;;;;14.30;10.80;;;;;;;6.53;91.65;98664.15;104174;1256;105940;-67
2023/02/20 19:38:57;;;;;;;15.40;11.00;;;;;;;6.55;91.73;98660.28;103205;1255;96426;-68
2023/02/20 19:41:24;;;;;;;17.10;11.40;;;;;;;6.56;91.99;98655.21;103139;1254;112422;-67
2023/02/20 19:43:56;;;;;;;15.20;10.40;;;;;;;6.58;92.05;98653.76;103078;1254;138061;-66
2023/02/20 19:46:35;;;;;;;14.10;10.60;;;;;;;6.59;91.80;98651.80;103164;1257;96780;-67
2023/02/20 19:49:23;;;;;;;14.50;10.90;;;;;;;6.61;91.90;98649.63;103522;1255;137879;-68
2023/02/20 19:52:11;;;;;;;13.30;9.50;;;;;;;6.62;91.67;98658.56;103471;1258;96445;-67
2023/02/20 19:54:39;;;;;;;12.90;10.10;;;;;;;6.64;91.68;98650.75;103120;1256;137821;-68
2023/02/20 19:57:08;;;;;;;17.40;10.90;;;;;;;6.64;91.58;98654.02;103109;1255;108709;-67
2023/02/20 19:59:36;;;;;;;14.90;10.40;;;;;;;6.65;91.77;98661.91;103143;1256;96322;-67
2023/02/20 20:02:23;;;;;;;14.00;10.90;;;;;;;6.66;91.88;98657.25;103096;1258;137879;-69
2023/02/20 20:04:57;;;;;;;12.70;10.80;;;;;;;6.65;92.04;98647.77;102875;1255;96442;-68
2023/02/20 20:07:27;;;;;;;17.80;11.00;;;;;;;6.65;91.89;98639.48;102863;1256;137877;-66
2023/02/20 20:09:54;;;;;;;14.40;10.80;;;;;;;6.64;92.11;98640.55;102959;1256;107877;-68
2023/02/20 20:15:07;;;;;;;13.80;10.50;;;;;;;6.62;92.30;98636.13;103398;1254;106487;-68
2023/02/20 20:17:35;;;;;;;15.00;10.80;;;;;;;6.61;92.27;98623.39;102904;1258;96625;-66
2023/02/20 20:20:13;;;;;;;14.50;10.60;;;;;;;6.61;92.59;98641.71;102831;1256;137817;-66
2023/02/20 20:22:41;;;;;;;15.00;11.10;;;;;;;6.60;92.66;98637.94;102992;1255;108091;-65
2023/02/20 20:25:13;;;;;;;17.30;11.20;;;;;;;6.59;92.83;98630.74;102842;1256;138209;-66
2023/02/20 20:27:40;;;;;;;15.40;11.00;;;;;;;6.57;93.05;98629.08;103021;1258;108179;-66
2023/02/20 20:30:30;;;;;;;15.80;11.10;;;;;;;6.56;93.47;98623.11;102994;1256;96524;-65
2023/02/20 20:32:58;;;;;;;16.10;11.20;;;;;;;6.53;93.34;98635.98;103123;1258;109931;-67
2023/02/20 20:35:38;;;;;;;16.20;10.30;;;;;;;6.54;93.23;98638.91;103022;1254;107696;-65
2023/02/20 20:38:06;;;;;;;14.90;10.40;;;;;;;6.53;93.39;98644.30;102948;1256;138012;-66
2023/02/20 20:40:34;;;;;;;14.40;9.90;;;;;;;6.54;93.31;98642.87;103846;1256;107704;-66
2023/02/20 20:43:13;;;;;;;16.20;10.90;;;;;;;6.55;93.38;98643.01;102853;1256;138282;-67
2023/02/20 20:45:52;;;;;;;16.20;10.80;;;;;;;6.56;93.44;98646.75;103772;1256;109342;-66
2023/02/20 20:48:31;;;;;;;16.20;10.60;;;;;;;6.57;93.42;98650.34;103752;1256;107114;-66
2023/02/20 20:50:59;;;;;;;14.70;10.30;;;;;;;6.57;93.37;98655.52;103021;1255;96871;-65
2023/02/20 20:53:26;;;;;;;14.00;10.90;;;;;;;6.59;93.42;98656.80;103014;1256;108668;-65
2023/02/20 20:55:54;;;;;;;13.60;10.90;;;;;;;6.61;93.33;98661.40;102946;1258;138163;-65
2023/02/20 20:58:22;;;;;;;14.90;10.80;;;;;;;6.62;93.35;98662.21;103195;1258;109533;-65
2023/02/20 21:00:50;;;;;;;13.00;10.20;;;;;;;6.63;93.34;98653.20;102872;1256;138858;-65
2023/02/20 21:03:27;;;;;;;15.70;10.10;;;;;;;6.63;93.24;98653.69;102785;1258;96475;-65
2023/02/20 21:06:14;;;;;;;13.30;9.30;;;;;;;6.64;93.39;98646.60;102988;1256;109719;-66
2023/02/20 21:08:44;;;;;;;14.80;9.60;;;;;;;6.65;93.38;98649.52;102876;1258;137990;-67
2023/02/20 21:11:22;;;;;;;14.10;9.80;;;;;;;6.66;93.25;98648.41;103059;1256;110904;-66
2023/02/20 21:14:10;;;;;;;14.30;9.60;;;;;;;6.66;93.43;98637.19;102948;1258;137840;-66
2023/02/20 21:16:38;;;;;;;15.70;9.90;;;;;;;6.67;93.40;98645.61;102969;1256;96436;-66
2023/02/20 21:19:05;;;;;;;13.70;9.20;;;;;;;6.68;93.46;98651.11;102753;1258;137857;-66
2023/02/20 21:21:33;;;;;;;12.40;8.40;;;;;;;6.69;93.39;98668.52;102968;1258;96445;-66
2023/02/20 21:24:00;;;;;;;9.30;6.50;;;;;;;6.71;93.45;98669.15;102413;1256;1003433;-66
2023/02/20 21:26:30;;;;;;;11.00;6.50;;;;;;;6.70;93.40;98657.95;102871;1259;137775;-65
2023/02/20 21:29:09;;;;;;;7.00;4.50;;;;;;;6.70;93.32;98654.13;103150;1258;96362;-66
2023/02/20 21:31:42;;;;;;;7.80;4.40;;;;;;;6.71;93.08;98659.80;104041;1255;137401;-67
2023/02/20 21:34:23;;;;;;;4.60;3.40;;;;;;;6.71;93.05;98660.66;103194;1258;96795;-65
2023/02/20 21:36:56;;;;;;;4.80;3.10;;;;;;;6.70;93.02;98654.48;103020;1256;137828;-65
2023/02/20 21:39:24;;;;;;;4.10;2.90;;;;;;;6.70;93.28;98655.86;103055;1255;108733;-65
2023/02/20 21:44:38;;;;;;;4.50;3.20;;;;;;;6.67;93.38;98661.52;102919;1258;137595;-65
2023/02/20 21:47:09;;;;;;;3.80;3.00;;;;;;;6.65;93.40;98660.72;103093;1256;96515;-65
2023/02/20 21:49:42;;;;;;;5.30;3.00;;;;;;;6.64;93.62;98651.28;103049;1256;137774;-66
2023/02/20 21:52:13;;;;;;;4.50;3.50;;;;;;;6.62;93.34;98654.42;104317;1258;105760;-66
2023/02/20 21:54:46;;;;;;;4.50;3.30;;;;;;;6.62;93.03;98648.89;103003;1258;137827;-68
2023/02/20 21:57:25;;;;;;;5.20;3.30;;;;;;;6.64;93.13;98657.30;103842;1254;107994;-67
